Time;durP1;ratioP1;P1;durP2;ratioP2;P2;SDS_P1;SDS_P2;PMS_P1;PMS_P2;Temp;Humidity;BMP_temperature;BMP_pressure;BME280_temperature;BME280_humidity;BME280_pressure;Samples;Min_cycle;Max_cycle;Signal;HPM_P1;HPM_P2
2021/01/18 00:02:44;;;;;;;32.17;17.48;;;;;;;4.15;100.00;101803.22;10500834;28;20502;-71
2021/01/18 00:07:50;;;;;;;36.50;18.13;;;;;;;4.16;100.00;101785.84;10535579;28;20048;-71
2021/01/18 00:12:53;;;;;;;38.10;17.83;;;;;;;4.20;100.00;101792.78;10537610;28;20542;-70
2021/01/18 00:17:54;;;;;;;36.10;17.98;;;;;;;4.19;100.00;101791.03;10534954;28;20098;-70
2021/01/18 00:22:55;;;;;;;35.45;17.13;;;;;;;4.15;100.00;101789.31;10507069;28;20048;-70
2021/01/18 00:27:56;;;;;;;27.08;17.25;;;;;;;4.21;100.00;101802.34;10490218;28;20037;-70
2021/01/18 00:32:58;;;;;;;35.03;19.13;;;;;;;4.22;100.00;101784.97;10491887;28;20431;-70
2021/01/18 00:38:00;;;;;;;37.67;17.73;;;;;;;4.19;100.00;101778.88;10492005;28;20048;-70
2021/01/18 00:43:01;;;;;;;36.55;19.40;;;;;;;4.17;100.00;101791.06;10492487;28;20671;-70
2021/01/18 00:48:02;;;;;;;31.35;16.77;;;;;;;4.18;100.00;101791.94;10501047;28;20052;-70
2021/01/18 00:53:04;;;;;;;29.40;17.92;;;;;;;4.13;100.00;101781.47;10505215;28;20423;-70
2021/01/18 00:58:13;;;;;;;35.45;16.95;;;;;;;4.11;100.00;101771.91;10490545;28;20098;-71
2021/01/18 01:03:22;;;;;;;27.23;13.73;;;;;;;4.09;100.00;101766.72;10506818;28;20139;-70
2021/01/18 01:08:23;;;;;;;18.77;9.52;;;;;;;4.11;100.00;101757.13;10533873;28;20047;-70
2021/01/18 01:13:24;;;;;;;18.27;9.38;;;;;;;4.23;100.00;101761.50;10533204;28;20063;-70
2021/01/18 01:18:25;;;;;;;18.13;12.18;;;;;;;4.32;100.00;101758.03;10540802;28;20048;-70
2021/01/18 01:23:26;;;;;;;27.48;13.85;;;;;;;4.24;100.00;101747.59;10510772;28;20480;-70
2021/01/18 01:28:27;;;;;;;27.58;15.25;;;;;;;4.24;100.00;101757.16;10498890;28;20037;-70
2021/01/18 01:33:29;;;;;;;31.83;16.92;;;;;;;4.19;100.00;101751.91;10498352;28;20046;-70
2021/01/18 01:38:33;;;;;;;27.10;16.95;;;;;;;4.19;100.00;101741.50;10497033;28;20052;-70
2021/01/18 01:43:35;;;;;;;26.73;16.13;;;;;;;4.15;100.00;101743.25;10497859;28;20044;-70
2021/01/18 01:48:36;;;;;;;24.75;15.88;;;;;;;4.14;100.00;101738.91;10511124;28;20052;-71
2021/01/18 01:53:37;;;;;;;29.05;18.40;;;;;;;4.10;100.00;101738.91;10508614;28;20060;-71
2021/01/18 01:58:39;;;;;;;31.58;18.98;;;;;;;4.12;100.00;101735.41;10497439;28;20048;-70
2021/01/18 02:03:42;;;;;;;33.92;16.63;;;;;;;4.05;100.00;101730.19;10516338;28;20529;-70
2021/01/18 02:08:43;;;;;;;29.20;16.08;;;;;;;4.07;100.00;101736.28;10540397;28;20047;-71
2021/01/18 02:14:03;;;;;;;26.27;16.20;;;;;;;4.16;100.00;101734.56;10500083;28;20065;-70
2021/01/18 02:19:40;;;;;;;22.67;13.88;;;;;;;4.08;100.00;101728.47;10483065;28;20048;-70
2021/01/18 02:25:04;;;;;;;23.73;13.93;;;;;;;3.95;100.00;101711.06;10495333;28;20044;-70
2021/01/18 02:30:20;;;;;;;23.30;13.10;;;;;;;3.79;100.00;101691.94;10472220;28;20067;-71
2021/01/18 02:36:02;;;;;;;18.55;9.73;;;;;;;3.71;100.00;101684.97;10479798;28;20036;-71
2021/01/18 02:41:14;;;;;;;15.73;9.15;;;;;;;3.88;100.00;101700.63;10496045;28;20051;-70
2021/01/18 02:46:17;;;;;;;15.80;8.43;;;;;;;3.88;100.00;101701.50;10495235;28;20052;-70
2021/01/18 02:51:22;;;;;;;19.75;9.43;;;;;;;3.91;100.00;101704.13;10495778;28;20090;-70
2021/01/18 02:56:35;;;;;;;21.83;11.25;;;;;;;3.85;100.00;101691.06;10494968;28;20060;-70
2021/01/18 03:01:57;;;;;;;16.08;10.05;;;;;;;3.78;100.00;101687.59;10496209;28;20094;-71
2021/01/18 03:07:05;;;;;;;22.35;11.45;;;;;;;3.70;100.00;101686.72;10494324;28;20049;-70
2021/01/18 03:12:10;;;;;;;19.42;11.93;;;;;;;3.64;100.00;101685.84;10494926;28;20720;-70
2021/01/18 03:17:21;;;;;;;19.35;13.77;;;;;;;3.67;100.00;101699.75;10495636;28;20048;-71
2021/01/18 03:22:24;;;;;;;18.80;12.02;;;;;;;3.66;100.00;101702.38;10499890;28;20083;-71
2021/01/18 03:27:27;;;;;;;25.83;14.13;;;;;;;3.70;100.00;101714.50;10495208;28;20036;-71
2021/01/18 03:32:28;;;;;;;20.52;12.90;;;;;;;3.79;100.00;101715.41;10493852;28;20098;-70
2021/01/18 03:37:29;;;;;;;22.58;11.63;;;;;;;3.85;100.00;101711.06;10493903;28;20090;-70
2021/01/18 03:42:30;;;;;;;17.30;10.98;;;;;;;3.84;100.00;101705.00;10493142;28;20045;-71
2021/01/18 03:47:31;;;;;;;21.42;12.52;;;;;;;3.80;100.00;101700.63;10498540;28;20055;-70
2021/01/18 03:52:32;;;;;;;18.80;12.40;;;;;;;3.83;100.00;101708.47;10535269;28;20048;-71
2021/01/18 03:57:33;;;;;;;22.38;12.90;;;;;;;3.78;100.00;101700.63;10504903;28;20507;-70
2021/01/18 04:02:35;;;;;;;23.83;13.32;;;;;;;3.69;100.00;101692.78;10501522;28;20040;-71
2021/01/18 04:07:36;;;;;;;21.25;13.32;;;;;;;3.80;100.00;101703.25;10506148;28;20049;-70
2021/01/18 04:12:41;;;;;;;24.40;13.45;;;;;;;3.84;100.00;101699.78;10491639;28;20124;-71
2021/01/18 04:17:44;;;;;;;20.77;11.38;;;;;;;3.84;100.00;101706.72;10493023;28;20040;-71
2021/01/18 04:22:53;;;;;;;22.77;11.63;;;;;;;3.77;100.00;101698.88;10492203;28;20045;-70
2021/01/18 04:27:56;;;;;;;22.05;11.10;;;;;;;3.77;100.00;101685.84;10491844;28;20429;-71
2021/01/18 04:33:01;;;;;;;20.98;11.10;;;;;;;3.84;100.00;101691.09;10491263;28;20052;-70
2021/01/18 04:38:02;;;;;;;30.80;12.03;;;;;;;3.79;100.00;101697.16;10492276;28;20555;-70
2021/01/18 04:43:04;;;;;;;26.00;10.70;;;;;;;3.73;100.00;101685.88;10492118;28;20658;-70
2021/01/18 04:48:05;;;;;;;21.13;10.73;;;;;;;3.76;100.00;101681.53;10501231;28;20059;-70
2021/01/18 04:53:17;;;;;;;22.98;11.93;;;;;;;3.72;100.00;101677.16;10540790;28;20048;-70
2021/01/18 04:58:19;;;;;;;20.80;11.50;;;;;;;3.61;100.00;101665.00;10506209;28;20048;-71
2021/01/18 05:03:25;;;;;;;19.15;11.63;;;;;;;3.59;100.00;101656.31;10515676;28;20051;-71
2021/01/18 05:09:04;;;;;;;23.92;12.45;;;;;;;3.67;100.00;101675.44;10542553;28;20047;-70
2021/01/18 05:14:05;;;;;;;26.35;12.90;;;;;;;3.66;100.00;101658.06;10541132;28;20048;-71
2021/01/18 05:19:11;;;;;;;29.00;13.70;;;;;;;3.68;100.00;101664.16;10516821;28;20044;-71
2021/01/18 05:24:13;;;;;;;26.33;14.13;;;;;;;3.75;100.00;101685.00;10478439;28;20061;-71
2021/01/18 05:29:14;;;;;;;24.83;14.02;;;;;;;3.73;100.00;101675.44;10479303;28;20040;-70
2021/01/18 05:34:15;;;;;;;25.58;14.07;;;;;;;3.79;100.00;101681.50;10466580;28;20052;-71
2021/01/18 05:39:43;;;;;;;24.50;14.07;;;;;;;3.77;100.00;101684.97;10480073;28;20043;-70
2021/01/18 05:44:44;;;;;;;28.05;14.32;;;;;;;3.96;100.00;101698.91;10499198;28;20056;-71
2021/01/18 05:49:48;;;;;;;28.63;14.88;;;;;;;3.81;100.00;101694.56;10503217;28;20140;-70
2021/01/18 05:54:49;;;;;;;30.75;14.38;;;;;;;3.76;100.00;101697.16;10501837;28;20036;-70
2021/01/18 05:59:57;;;;;;;22.25;13.95;;;;;;;3.82;100.00;101709.34;10501469;28;20044;-70
2021/01/18 06:05:06;;;;;;;24.60;14.52;;;;;;;3.76;100.00;101701.50;10499149;28;20045;-70
2021/01/18 06:10:07;;;;;;;26.67;15.32;;;;;;;3.69;100.00;101708.44;10497603;28;20040;-72
2021/01/18 06:15:14;;;;;;;31.98;15.73;;;;;;;3.61;100.00;101696.25;10501494;28;20048;-71
2021/01/18 06:20:27;;;;;;;27.40;14.32;;;;;;;3.62;100.00;101698.00;10489045;28;20047;-71
2021/01/18 06:25:38;;;;;;;23.88;14.13;;;;;;;3.61;100.00;101702.34;10501393;28;20090;-71
2021/01/18 06:30:39;;;;;;;28.42;13.60;;;;;;;3.64;100.00;101714.50;10500165;28;20135;-71
2021/01/18 06:35:41;;;;;;;35.97;16.33;;;;;;;3.60;100.00;101699.75;10501220;28;20049;-71
2021/01/18 06:40:42;;;;;;;28.83;15.70;;;;;;;3.63;100.00;101704.94;10500549;28;20044;-69
2021/01/18 06:45:43;;;;;;;27.33;15.02;;;;;;;3.77;100.00;101711.03;10499966;28;20079;-69
2021/01/18 06:50:45;;;;;;;29.67;14.65;;;;;;;3.85;100.00;101719.75;10523495;28;20541;-69
2021/01/18 06:56:09;;;;;;;29.05;14.43;;;;;;;3.79;100.00;101712.78;10498029;28;20423;-70
2021/01/18 07:01:14;;;;;;;32.00;18.15;;;;;;;3.77;100.00;101704.09;10450184;28;20056;-70
2021/01/18 07:06:31;;;;;;;30.27;16.38;;;;;;;3.76;100.00;101705.00;10539428;28;20056;-70
2021/01/18 07:11:33;;;;;;;35.30;15.18;;;;;;;3.79;100.00;101711.91;10517299;28;20051;-70
2021/01/18 07:16:35;;;;;;;28.55;15.43;;;;;;;3.82;100.00;101717.16;10499184;28;20040;-70
2021/01/18 07:22:12;;;;;;;35.92;17.60;;;;;;;3.83;100.00;101715.41;10498543;28;20072;-70
2021/01/18 07:27:15;;;;;;;34.60;17.30;;;;;;;3.89;100.00;101724.09;10497501;28;20064;-70
2021/01/18 07:32:20;;;;;;;34.05;16.65;;;;;;;3.88;100.00;101724.09;10498628;28;20051;-70
2021/01/18 07:37:24;;;;;;;38.78;17.13;;;;;;;3.83;100.00;101716.28;10499090;28;20391;-70
2021/01/18 07:42:31;;;;;;;32.72;16.58;;;;;;;3.81;100.00;101723.22;10496762;28;20385;-70
2021/01/18 07:47:55;;;;;;;36.08;15.43;;;;;;;3.78;100.00;101704.97;10498925;28;20236;-70
2021/01/18 07:53:11;;;;;;;29.35;15.63;;;;;;;3.84;100.00;101704.13;10497658;28;20460;-70
2021/01/18 07:58:19;;;;;;;33.90;14.55;;;;;;;3.67;100.00;101685.88;10474439;28;20049;-70
2021/01/18 08:03:21;;;;;;;33.15;14.60;;;;;;;3.81;100.00;101702.38;10503725;28;20449;-70
2021/01/18 08:08:28;;;;;;;29.27;14.35;;;;;;;3.89;100.00;101707.59;10499271;28;20048;-71
2021/01/18 08:13:40;;;;;;;29.80;13.45;;;;;;;4.04;100.00;101712.81;10507930;28;20051;-71
2021/01/18 08:19:14;;;;;;;27.58;13.02;;;;;;;4.10;100.00;101713.66;10495044;28;20111;-69
2021/01/18 08:24:35;;;;;;;28.10;13.07;;;;;;;4.24;100.00;101716.28;10495988;28;20040;-69
2021/01/18 08:29:48;;;;;;;29.92;14.15;;;;;;;4.29;100.00;101722.38;10493435;28;20048;-69
2021/01/18 08:34:52;;;;;;;25.70;14.32;;;;;;;4.56;100.00;101732.78;10492629;28;20051;-70
2021/01/18 08:39:54;;;;;;;26.33;12.43;;;;;;;4.63;100.00;101723.19;10494439;28;20040;-69
2021/01/18 08:45:03;;;;;;;26.70;11.68;;;;;;;4.73;100.00;101734.47;10508116;28;20047;-71
2021/01/18 08:50:29;;;;;;;25.23;12.82;;;;;;;4.83;100.00;101736.22;10511238;28;20052;-71
2021/01/18 08:55:30;;;;;;;26.63;12.35;;;;;;;4.80;100.00;101734.47;10475160;28;20094;-70
2021/01/18 09:00:43;;;;;;;26.13;12.07;;;;;;;4.81;100.00;101725.75;10495539;28;20057;-71
2021/01/18 09:05:48;;;;;;;30.60;12.73;;;;;;;4.96;100.00;101730.94;10494687;28;20080;-70
2021/01/18 09:10:59;;;;;;;;;;;;;;;5.39;100.00;101738.59;10493582;28;20115;-71
2021/01/18 09:16:04;;;;;;;29.30;13.20;;;;;;;5.42;100.00;101730.75;10494214;28;19920;-69
2021/01/18 09:21:08;;;;;;;22.52;12.57;;;;;;;5.38;100.00;101720.31;10494749;28;20055;-71
2021/01/18 09:26:12;;;;;;;26.08;12.38;;;;;;;5.65;100.00;101718.41;10489880;28;20070;-71
2021/01/18 09:31:14;;;;;;;26.13;14.15;;;;;;;5.57;100.00;101698.44;10494383;28;20104;-71
2021/01/18 09:36:18;;;;;;;28.23;12.60;;;;;;;5.58;100.00;101721.94;10497524;28;20041;-70
2021/01/18 09:41:19;;;;;;;24.90;13.57;;;;;;;5.42;100.00;101703.75;10516281;28;20539;-71
2021/01/18 09:46:21;;;;;;;28.08;12.85;;;;;;;5.28;100.00;101702.06;10501263;28;20052;-71
2021/01/18 09:51:22;;;;;;;23.25;13.15;;;;;;;5.21;100.00;101692.53;10515768;28;20033;-71
2021/01/18 09:56:26;;;;;;;23.27;12.63;;;;;;;5.10;100.00;101691.72;10494867;28;20052;-71
2021/01/18 10:01:33;;;;;;;25.58;13.65;;;;;;;5.01;100.00;101676.09;10504172;28;20032;-71
2021/01/18 10:06:35;;;;;;;25.20;10.55;;;;;;;5.00;100.00;101689.16;10512870;28;20403;-71
2021/01/18 10:11:42;;;;;;;21.95;10.70;;;;;;;5.14;100.00;101689.94;10492281;28;20125;-70
2021/01/18 10:17:02;;;;;;;18.83;10.57;;;;;;;5.19;100.00;101701.25;10509527;28;20442;-72
2021/01/18 10:22:05;;;;;;;18.75;10.63;;;;;;;5.49;100.00;101689.78;10499667;28;20052;-71
2021/01/18 10:27:15;;;;;;;17.10;8.65;;;;;;;5.37;100.00;101688.09;10499398;28;20123;-71
2021/01/18 10:32:16;;;;;;;17.95;8.95;;;;;;;5.69;100.00;101673.06;10507812;28;20045;-71
2021/01/18 10:37:26;;;;;;;16.65;8.38;;;;;;;5.42;100.00;101646.25;10523997;28;20040;-71
2021/01/18 10:42:28;;;;;;;19.15;8.40;;;;;;;5.85;100.00;101658.16;10498919;28;20045;-71
2021/01/18 10:47:29;;;;;;;18.33;8.75;;;;;;;7.06;100.00;101670.88;10499846;28;20051;-71
2021/01/18 10:52:32;;;;;;;19.27;7.72;;;;;;;7.34;100.00;101674.00;10518000;28;20040;-71
2021/01/18 10:57:41;;;;;;;15.65;7.22;;;;;;;7.84;100.00;101649.63;10496898;28;20456;-71
2021/01/18 11:02:53;;;;;;;15.63;6.95;;;;;;;6.96;100.00;101588.91;10499013;28;20045;-71
2021/01/18 11:07:54;;;;;;;14.68;6.53;;;;;;;6.55;100.00;101594.66;10497874;28;20514;-71
2021/01/18 11:13:10;;;;;;;13.07;7.22;;;;;;;6.86;100.00;101588.16;10485271;28;20484;-71
2021/01/18 11:18:12;;;;;;;12.93;6.07;;;;;;;6.81;100.00;101578.63;10496267;28;20048;-71
2021/01/18 11:23:13;;;;;;;15.90;7.13;;;;;;;7.08;100.00;101580.00;10497181;28;20052;-71
2021/01/18 11:28:17;;;;;;;17.63;5.40;;;;;;;6.54;100.00;101556.28;10470744;28;20045;-71
2021/01/18 11:33:18;;;;;;;19.63;6.88;;;;;;;6.33;100.00;101546.09;10496585;28;20036;-71
2021/01/18 11:38:19;;;;;;;20.38;7.30;;;;;;;6.35;100.00;101539.09;10494847;28;20166;-70
2021/01/18 11:43:21;;;;;;;12.18;6.03;;;;;;;6.18;100.00;101530.56;10494737;28;20052;-70
2021/01/18 11:48:22;;;;;;;14.18;5.95;;;;;;;6.31;100.00;101527.78;10506541;28;20063;-69
2021/01/18 11:53:23;;;;;;;12.25;5.53;;;;;;;6.46;100.00;101524.09;10495567;28;20101;-70
2021/01/18 11:58:24;;;;;;;14.43;5.30;;;;;;;6.39;100.00;101525.94;10500513;28;20048;-70
2021/01/18 12:03:25;;;;;;;20.05;7.57;;;;;;;6.69;100.00;101521.19;10497462;28;20043;-73
2021/01/18 12:08:26;;;;;;;13.52;4.72;;;;;;;7.07;100.00;101533.75;10502170;28;20048;-71
2021/01/18 12:13:30;;;;;;;11.73;5.32;;;;;;;7.33;100.00;101518.47;10498082;28;20059;-73
2021/01/18 12:18:31;;;;;;;14.43;5.13;;;;;;;7.48;100.00;101499.00;10493904;28;20112;-69
2021/01/18 12:23:32;;;;;;;16.73;6.10;;;;;;;7.05;100.00;101477.88;10503669;28;20044;-71
2021/01/18 12:28:33;;;;;;;15.00;5.45;;;;;;;6.97;100.00;101480.59;10495714;28;20481;-70
2021/01/18 12:33:34;;;;;;;13.80;4.80;;;;;;;6.75;100.00;101476.59;10495826;28;20045;-70
2021/01/18 12:38:36;;;;;;;14.88;4.85;;;;;;;6.75;100.00;101469.59;10496443;28;20037;-70
2021/01/18 12:43:37;;;;;;;10.75;4.13;;;;;;;7.54;100.00;101483.16;10494315;28;20048;-71
2021/01/18 12:48:38;;;;;;;13.63;4.90;;;;;;;7.48;100.00;101480.66;10496875;28;20455;-70
2021/01/18 12:53:46;;;;;;;15.60;4.18;;;;;;;7.13;100.00;101461.13;10494027;28;20048;-70
2021/01/18 12:58:47;;;;;;;9.95;4.07;;;;;;;6.76;100.00;101454.75;10494160;28;20040;-70
2021/01/18 13:03:48;;;;;;;10.00;4.57;;;;;;;6.51;100.00;101456.00;10519656;28;20054;-70
2021/01/18 13:08:50;;;;;;;15.05;4.95;;;;;;;6.46;100.00;101461.28;10533064;28;20494;-70
2021/01/18 13:13:51;;;;;;;14.90;4.20;;;;;;;6.35;100.00;101452.72;10512948;28;20036;-70
2021/01/18 13:18:52;;;;;;;11.55;5.13;;;;;;;6.22;100.00;101444.16;10514927;28;20422;-70
2021/01/18 13:23:53;;;;;;;13.48;4.78;;;;;;;6.12;100.00;101429.47;10485422;28;20114;-70
2021/01/18 13:28:55;;;;;;;15.68;4.65;;;;;;;6.23;100.00;101451.13;10515256;28;20105;-70
2021/01/18 13:33:57;;;;;;;12.30;4.28;;;;;;;6.30;100.00;101444.06;10506595;28;20427;-70
2021/01/18 13:39:01;;;;;;;16.50;6.28;;;;;;;6.55;100.00;101460.28;10500725;28;20052;-69
2021/01/18 13:44:03;;;;;;;13.27;4.45;;;;;;;6.71;100.00;101443.47;10496113;28;20055;-70
2021/01/18 13:49:04;;;;;;;10.25;4.28;;;;;;;6.47;100.00;101435.09;10492231;28;20056;-70
2021/01/18 13:54:05;;;;;;;8.70;3.55;;;;;;;6.43;100.00;101430.81;10497055;28;20051;-69
2021/01/18 13:59:07;;;;;;;8.77;3.80;;;;;;;6.29;100.00;101416.16;10514754;28;20040;-70
2021/01/18 14:04:09;;;;;;;14.27;4.03;;;;;;;6.37;100.00;101412.53;10508830;28;20040;-70
2021/01/18 14:09:14;;;;;;;12.43;4.63;;;;;;;6.34;100.00;101422.22;10494835;28;20041;-70
2021/01/18 14:14:15;;;;;;;12.93;4.45;;;;;;;6.30;100.00;101412.66;10495621;28;20044;-70
2021/01/18 14:19:16;;;;;;;10.05;4.03;;;;;;;6.24;100.00;101423.22;10497445;28;20055;-70
2021/01/18 14:24:17;;;;;;;11.77;5.03;;;;;;;6.17;100.00;101413.72;10495159;28;20404;-70
2021/01/18 14:29:18;;;;;;;12.68;5.35;;;;;;;6.24;100.00;101421.47;10502313;28;20102;-70
2021/01/18 14:34:21;;;;;;;14.43;5.35;;;;;;;6.17;100.00;101421.56;10528489;28;20047;-70
2021/01/18 14:39:22;;;;;;;10.90;4.00;;;;;;;6.04;100.00;101413.88;10508279;28;20044;-71
2021/01/18 14:44:23;;;;;;;15.82;5.78;;;;;;;5.99;100.00;101409.59;10499456;28;20056;-71
2021/01/18 14:49:25;;;;;;;11.93;5.40;;;;;;;5.96;100.00;101405.25;10501497;28;20056;-70
2021/01/18 14:54:26;;;;;;;14.13;5.15;;;;;;;5.96;100.00;101412.22;10496530;28;20036;-71
2021/01/18 14:59:27;;;;;;;15.85;5.55;;;;;;;5.78;100.00;101397.59;10498055;28;20041;-70
2021/01/18 15:04:28;;;;;;;15.23;7.10;;;;;;;5.76;100.00;101408.97;10489609;28;20037;-71
2021/01/18 15:09:30;;;;;;;12.45;5.70;;;;;;;5.74;100.00;101416.81;10496464;28;20052;-72
2021/01/18 15:14:31;;;;;;;12.05;4.70;;;;;;;5.81;100.00;101418.47;10498396;28;20045;-70
2021/01/18 15:19:32;;;;;;;10.48;5.45;;;;;;;5.64;100.00;101399.50;10497068;28;20063;-71
2021/01/18 15:24:35;;;;;;;12.55;5.07;;;;;;;5.47;100.00;101401.44;10487609;28;20042;-71
2021/01/18 15:29:36;;;;;;;10.18;4.93;;;;;;;5.43;100.00;101410.22;10499271;28;20044;-71
2021/01/18 15:34:37;;;;;;;11.85;5.78;;;;;;;5.39;100.00;101414.59;10500842;28;20041;-71
2021/01/18 15:39:39;;;;;;;13.88;5.38;;;;;;;5.42;100.00;101422.41;10494541;28;20040;-71
2021/01/18 15:44:40;;;;;;;11.15;5.72;;;;;;;5.34;100.00;101417.25;10507128;28;20041;-71
2021/01/18 15:49:41;;;;;;;16.20;5.25;;;;;;;5.17;100.00;101400.88;10514637;28;20052;-71
2021/01/18 15:54:43;;;;;;;20.98;11.90;;;;;;;5.07;100.00;101400.97;10503144;28;20032;-72
2021/01/18 15:59:44;;;;;;;19.58;8.25;;;;;;;5.02;100.00;101411.44;10500702;28;20492;-71
2021/01/18 16:04:45;;;;;;;15.88;6.05;;;;;;;5.01;100.00;101409.75;10496863;28;20124;-74
2021/01/18 16:09:46;;;;;;;14.68;7.43;;;;;;;5.01;100.00;101428.00;10502263;28;20409;-72
2021/01/18 16:14:47;;;;;;;10.88;5.50;;;;;;;5.01;100.00;101414.97;10494828;28;20047;-74
2021/01/18 16:19:50;;;;;;;22.30;12.73;;;;;;;5.04;100.00;101427.09;10500464;28;20044;-73
2021/01/18 16:24:52;;;;;;;19.95;16.42;;;;;;;5.02;100.00;101415.81;10502319;28;20478;-73
2021/01/18 16:29:53;;;;;;;186.05;156.63;;;;;;;5.00;100.00;101430.63;10494147;28;20048;-72
2021/01/18 16:34:54;;;;;;;18.20;8.98;;;;;;;5.02;100.00;101424.50;10514077;28;20052;-73
2021/01/18 16:39:56;;;;;;;14.88;6.40;;;;;;;4.94;100.00;101424.56;10510475;28;20044;-72
2021/01/18 16:44:58;;;;;;;40.70;26.45;;;;;;;5.02;100.00;101421.88;10538836;28;20048;-72
2021/01/18 16:49:59;;;;;;;34.50;23.25;;;;;;;5.28;100.00;101437.31;10542732;28;20051;-73
2021/01/18 16:55:00;;;;;;;12.32;6.93;;;;;;;5.01;100.00;101419.31;10489654;28;20036;-72
2021/01/18 17:00:03;;;;;;;16.60;6.68;;;;;;;4.90;100.00;101411.56;10504420;28;20044;-72
2021/01/18 17:05:06;;;;;;;12.45;6.32;;;;;;;4.89;100.00;101407.22;10499749;28;20052;-71
2021/01/18 17:10:10;;;;;;;14.15;6.82;;;;;;;4.88;100.00;101413.31;10503230;28;20529;-71
2021/01/18 17:15:11;;;;;;;54.03;27.63;;;;;;;4.88;100.00;101416.78;10462733;28;20044;-70
2021/01/18 17:20:13;;;;;;;14.63;8.15;;;;;;;4.92;100.00;101421.13;10465774;28;20044;-70
2021/01/18 17:25:14;;;;;;;16.92;10.60;;;;;;;4.87;100.00;101428.09;10504026;28;20048;-70
2021/01/18 17:30:15;;;;;;;10.68;6.85;;;;;;;4.86;100.00;101422.88;10502990;28;20047;-70
2021/01/18 17:35:16;;;;;;;18.95;8.82;;;;;;;4.79;100.00;101423.81;10490811;28;20045;-70
2021/01/18 17:40:18;;;;;;;15.25;8.27;;;;;;;4.89;100.00;101442.03;10502708;28;20064;-69
2021/01/18 17:45:19;;;;;;;17.80;9.13;;;;;;;4.80;100.00;101433.38;10492483;28;20048;-69
2021/01/18 17:50:20;;;;;;;16.40;8.95;;;;;;;4.87;100.00;101435.94;10500364;28;20056;-72
2021/01/18 17:55:21;;;;;;;15.50;8.25;;;;;;;4.84;100.00;101437.72;10480877;28;20041;-72
2021/01/18 18:00:23;;;;;;;14.90;8.75;;;;;;;4.91;100.00;101447.25;10500348;28;20484;-70
2021/01/18 18:05:24;;;;;;;14.52;8.35;;;;;;;4.84;100.00;101445.56;10501728;28;20492;-69
2021/01/18 18:10:25;;;;;;;13.50;9.00;;;;;;;4.88;100.00;101461.16;10501615;28;20045;-69
2021/01/18 18:15:26;;;;;;;15.68;12.70;;;;;;;4.85;100.00;101458.56;10500402;28;20506;-69
2021/01/18 18:20:27;;;;;;;18.70;10.52;;;;;;;4.84;100.00;101464.69;10499473;28;20534;-69
2021/01/18 18:25:29;;;;;;;16.20;10.57;;;;;;;4.84;100.00;101461.22;10476493;28;20052;-69
2021/01/18 18:30:30;;;;;;;23.88;17.52;;;;;;;4.84;100.00;101469.91;10500916;28;20082;-69
2021/01/18 18:35:32;;;;;;;19.23;12.10;;;;;;;4.87;100.00;101469.00;10498539;28;20045;-70
2021/01/18 18:40:33;;;;;;;18.48;10.07;;;;;;;4.84;100.00;101476.88;10499504;28;20044;-69
2021/01/18 18:45:34;;;;;;;19.48;8.80;;;;;;;4.74;100.00;101468.25;10498317;28;20135;-70
2021/01/18 18:50:36;;;;;;;15.88;10.30;;;;;;;4.80;100.00;101480.38;10498666;28;20064;-69
2021/01/18 18:55:37;;;;;;;16.13;9.68;;;;;;;4.79;100.00;101482.13;10498397;28;20043;-69
2021/01/18 19:00:38;;;;;;;13.57;9.30;;;;;;;4.70;100.00;101469.13;10493311;28;20056;-69
2021/01/18 19:05:39;;;;;;;14.93;10.25;;;;;;;4.63;100.00;101464.81;10499001;28;20502;-69
2021/01/18 19:10:40;;;;;;;17.17;10.35;;;;;;;4.68;100.00;101463.06;10497835;28;20048;-69
2021/01/18 19:15:41;;;;;;;14.77;11.35;;;;;;;4.69;100.00;101462.16;10499229;28;20033;-69
2021/01/18 19:20:43;;;;;;;16.77;10.52;;;;;;;4.64;100.00;101458.72;10497819;28;20072;-69
2021/01/18 19:25:44;;;;;;;17.90;10.98;;;;;;;4.64;100.00;101457.84;10491781;28;20253;-69
2021/01/18 19:30:45;;;;;;;13.65;10.10;;;;;;;4.65;100.00;101457.00;10491720;28;20404;-69
2021/01/18 19:35:46;;;;;;;101.43;51.53;;;;;;;4.68;100.00;101462.19;10465984;28;20040;-69
2021/01/18 19:40:47;;;;;;;17.77;14.45;;;;;;;4.61;100.00;101455.25;10494112;28;20044;-69
2021/01/18 19:45:48;;;;;;;15.75;13.20;;;;;;;4.65;100.00;101460.47;10497290;28;20070;-71
2021/01/18 19:50:50;;;;;;;11.73;9.15;;;;;;;4.65;100.00;101447.41;10496133;28;20036;-70
2021/01/18 19:55:54;;;;;;;14.27;9.27;;;;;;;4.60;100.00;101437.91;10496148;28;20115;-71
2021/01/18 20:00:55;;;;;;;13.18;8.80;;;;;;;4.56;100.00;101434.44;10487777;28;20429;-71
2021/01/18 20:05:56;;;;;;;12.48;9.73;;;;;;;4.55;100.00;101417.03;10495485;28;20064;-71
2021/01/18 20:10:57;;;;;;;9.02;8.07;;;;;;;4.53;100.00;101405.72;10496586;28;20047;-70
2021/01/18 20:15:59;;;;;;;13.73;8.95;;;;;;;4.56;100.00;101418.78;10497000;28;20071;-70
2021/01/18 20:21:00;;;;;;;14.77;9.68;;;;;;;4.52;100.00;101411.81;10495492;28;20197;-71
2021/01/18 20:26:02;;;;;;;13.23;8.32;;;;;;;4.58;100.00;101410.06;10496354;28;20067;-71
2021/01/18 20:31:03;;;;;;;12.35;9.05;;;;;;;4.61;100.00;101401.31;10496160;28;20090;-71
2021/01/18 20:36:06;;;;;;;12.00;8.00;;;;;;;4.59;100.00;101392.66;10508095;28;20487;-71
2021/01/18 20:41:07;;;;;;;9.65;6.97;;;;;;;4.64;100.00;101398.72;10491176;28;20037;-71
2021/01/18 20:46:08;;;;;;;12.38;7.82;;;;;;;4.66;100.00;101396.09;10496982;28;20056;-71
2021/01/18 20:51:10;;;;;;;10.15;6.80;;;;;;;4.71;100.00;101405.59;10493729;28;20052;-71
2021/01/18 20:56:20;;;;;;;9.10;6.45;;;;;;;4.74;100.00;101405.59;10511434;28;20051;-71
2021/01/18 21:01:23;;;;;;;10.30;7.25;;;;;;;4.82;100.00;101402.94;10537839;28;20048;-71
2021/01/18 21:06:25;;;;;;;9.07;6.60;;;;;;;4.80;100.00;101399.44;10537650;28;20044;-71
2021/01/18 21:11:28;;;;;;;9.73;6.45;;;;;;;4.84;100.00;101401.19;10537974;28;20040;-72
2021/01/18 21:16:31;;;;;;;8.68;6.35;;;;;;;4.83;100.00;101392.47;10503491;28;20116;-71
2021/01/18 21:21:32;;;;;;;12.23;7.28;;;;;;;4.84;100.00;101380.28;10489543;28;20045;-71
2021/01/18 21:26:35;;;;;;;13.88;9.02;;;;;;;4.86;100.00;101368.06;10491428;28;20060;-71
2021/01/18 21:31:46;;;;;;;12.27;8.90;;;;;;;4.85;100.00;101363.75;10463204;28;20381;-71
2021/01/18 21:36:54;;;;;;;9.82;6.55;;;;;;;4.96;100.00;101367.97;10492610;28;20043;-71
2021/01/18 21:41:56;;;;;;;9.02;6.00;;;;;;;4.86;100.00;101352.41;10493753;28;20065;-71
2021/01/18 21:46:57;;;;;;;10.15;6.10;;;;;;;4.84;100.00;101343.75;10498937;28;20049;-71
2021/01/18 21:51:58;;;;;;;10.90;5.93;;;;;;;4.81;100.00;101330.72;10501456;28;20128;-70
2021/01/18 21:56:59;;;;;;;9.75;6.70;;;;;;;4.78;100.00;101330.72;10499119;28;20044;-71
2021/01/18 22:02:03;;;;;;;11.23;6.85;;;;;;;4.79;100.00;101327.25;10501998;28;20033;-71
2021/01/18 22:07:04;;;;;;;10.45;6.75;;;;;;;4.89;100.00;101331.50;10496812;28;20048;-71
2021/01/18 22:12:05;;;;;;;10.35;7.22;;;;;;;4.96;100.00;101327.94;10504104;28;20404;-70
2021/01/18 22:17:06;;;;;;;13.23;8.13;;;;;;;4.99;100.00;101322.72;10499270;28;20032;-71
2021/01/18 22:22:08;;;;;;;14.50;8.05;;;;;;;4.95;100.00;101306.19;10501894;28;20045;-71
2021/01/18 22:27:09;;;;;;;12.40;8.50;;;;;;;4.89;100.00;101306.25;10501729;28;20412;-71
2021/01/18 22:32:10;;;;;;;11.52;7.75;;;;;;;4.82;100.00;101302.00;10501563;28;20044;-71
2021/01/18 22:37:11;;;;;;;12.20;7.45;;;;;;;4.80;100.00;101295.91;10501106;28;20051;-70
2021/01/18 22:42:13;;;;;;;15.27;7.88;;;;;;;4.88;100.00;101309.75;10500281;28;20075;-71
2021/01/18 22:47:20;;;;;;;13.63;9.05;;;;;;;4.87;100.00;101315.84;10496291;28;20052;-71
2021/01/18 22:52:28;;;;;;;17.75;9.38;;;;;;;4.95;100.00;101311.41;10501247;28;20465;-71
2021/01/18 22:57:33;;;;;;;15.40;9.10;;;;;;;5.01;100.00;101300.06;10498801;28;20037;-70